sensor_id;sensor_type;location;lat;lon;timestamp;P1;durP1;ratioP1;P2;durP2;ratioP2
25435;SDS011;13363;52.772;-3.890;2023-06-10T00:02:07;7.40;;;5.87;;
25435;SDS011;13363;52.772;-3.890;2023-06-10T00:04:33;6.57;;;5.97;;
25435;SDS011;13363;52.772;-3.890;2023-06-10T00:07:02;7.57;;;6.77;;
25435;SDS011;13363;52.772;-3.890;2023-06-10T00:09:29;6.57;;;6.00;;
25435;SDS011;13363;52.772;-3.890;2023-06-10T00:11:54;8.97;;;5.90;;
25435;SDS011;13363;52.772;-3.890;2023-06-10T00:14:20;6.90;;;6.20;;
25435;SDS011;13363;52.772;-3.890;2023-06-10T00:16:46;7.23;;;5.87;;
25435;SDS011;13363;52.772;-3.890;2023-06-10T00:19:12;7.20;;;5.73;;
25435;SDS011;13363;52.772;-3.890;2023-06-10T00:21:41;6.83;;;6.10;;
25435;SDS011;13363;52.772;-3.890;2023-06-10T00:24:10;8.03;;;6.17;;
25435;SDS011;13363;52.772;-3.890;2023-06-10T00:26:37;8.77;;;6.33;;
25435;SDS011;13363;52.772;-3.890;2023-06-10T00:29:04;7.77;;;5.97;;
25435;SDS011;13363;52.772;-3.890;2023-06-10T00:31:30;8.43;;;6.17;;
25435;SDS011;13363;52.772;-3.890;2023-06-10T00:33:56;7.33;;;5.80;;
25435;SDS011;13363;52.772;-3.890;2023-06-10T00:36:23;6.03;;;5.43;;
25435;SDS011;13363;52.772;-3.890;2023-06-10T00:38:49;8.03;;;6.10;;
25435;SDS011;13363;52.772;-3.890;2023-06-10T00:41:15;7.00;;;6.30;;
25435;SDS011;13363;52.772;-3.890;2023-06-10T00:43:41;9.80;;;6.53;;
25435;SDS011;13363;52.772;-3.890;2023-06-10T00:46:07;11.97;;;6.00;;
25435;SDS011;13363;52.772;-3.890;2023-06-10T00:48:33;9.27;;;6.43;;
25435;SDS011;13363;52.772;-3.890;2023-06-10T00:50:59;7.37;;;6.20;;
25435;SDS011;13363;52.772;-3.890;2023-06-10T00:53:26;7.60;;;6.00;;
25435;SDS011;13363;52.772;-3.890;2023-06-10T00:55:52;7.00;;;6.30;;
25435;SDS011;13363;52.772;-3.890;2023-06-10T00:58:18;8.60;;;6.07;;
25435;SDS011;13363;52.772;-3.890;2023-06-10T01:00:44;10.53;;;5.77;;
25435;SDS011;13363;52.772;-3.890;2023-06-10T01:03:11;9.27;;;6.50;;
25435;SDS011;13363;52.772;-3.890;2023-06-10T01:05:38;6.70;;;6.10;;
25435;SDS011;13363;52.772;-3.890;2023-06-10T01:08:22;9.03;;;6.57;;
25435;SDS011;13363;52.772;-3.890;2023-06-10T01:10:55;7.10;;;6.13;;
25435;SDS011;13363;52.772;-3.890;2023-06-10T01:13:25;7.13;;;6.33;;
25435;SDS011;13363;52.772;-3.890;2023-06-10T01:15:54;7.50;;;6.13;;
25435;SDS011;13363;52.772;-3.890;2023-06-10T01:18:20;7.20;;;5.83;;
25435;SDS011;13363;52.772;-3.890;2023-06-10T01:20:46;7.50;;;6.00;;
25435;SDS011;13363;52.772;-3.890;2023-06-10T01:23:14;7.00;;;5.63;;
25435;SDS011;13363;52.772;-3.890;2023-06-10T01:26:02;8.73;;;5.73;;
25435;SDS011;13363;52.772;-3.890;2023-06-10T01:28:42;7.63;;;5.83;;
25435;SDS011;13363;52.772;-3.890;2023-06-10T01:31:17;9.80;;;6.40;;
25435;SDS011;13363;52.772;-3.890;2023-06-10T01:34:13;10.23;;;6.27;;
25435;SDS011;13363;52.772;-3.890;2023-06-10T01:36:43;7.73;;;5.93;;
25435;SDS011;13363;52.772;-3.890;2023-06-10T01:39:13;6.73;;;6.10;;
25435;SDS011;13363;52.772;-3.890;2023-06-10T01:41:42;7.33;;;5.97;;
25435;SDS011;13363;52.772;-3.890;2023-06-10T01:44:08;7.10;;;6.37;;
25435;SDS011;13363;52.772;-3.890;2023-06-10T01:46:34;7.83;;;6.33;;
25435;SDS011;13363;52.772;-3.890;2023-06-10T01:49:00;8.37;;;6.93;;
25435;SDS011;13363;52.772;-3.890;2023-06-10T01:51:26;10.33;;;6.27;;
25435;SDS011;13363;52.772;-3.890;2023-06-10T01:53:52;7.27;;;5.80;;
25435;SDS011;13363;52.772;-3.890;2023-06-10T01:56:18;7.13;;;6.33;;
25435;SDS011;13363;52.772;-3.890;2023-06-10T01:58:45;6.87;;;6.27;;
25435;SDS011;13363;52.772;-3.890;2023-06-10T02:01:11;9.53;;;6.17;;
25435;SDS011;13363;52.772;-3.890;2023-06-10T02:03:38;6.97;;;6.27;;
25435;SDS011;13363;52.772;-3.890;2023-06-10T02:06:04;8.03;;;7.10;;
25435;SDS011;13363;52.772;-3.890;2023-06-10T02:08:30;7.50;;;5.97;;
25435;SDS011;13363;52.772;-3.890;2023-06-10T02:10:56;6.93;;;5.83;;
25435;SDS011;13363;52.772;-3.890;2023-06-10T02:13:21;6.37;;;5.77;;
25435;SDS011;13363;52.772;-3.890;2023-06-10T02:15:47;8.23;;;6.43;;
25435;SDS011;13363;52.772;-3.890;2023-06-10T02:18:13;10.83;;;6.50;;
25435;SDS011;13363;52.772;-3.890;2023-06-10T02:20:39;7.23;;;6.57;;
25435;SDS011;13363;52.772;-3.890;2023-06-10T02:23:04;8.73;;;6.87;;
25435;SDS011;13363;52.772;-3.890;2023-06-10T02:25:30;7.87;;;6.73;;
25435;SDS011;13363;52.772;-3.890;2023-06-10T02:27:56;8.13;;;6.10;;
25435;SDS011;13363;52.772;-3.890;2023-06-10T02:30:22;10.03;;;6.30;;
25435;SDS011;13363;52.772;-3.890;2023-06-10T02:32:48;7.93;;;6.33;;
25435;SDS011;13363;52.772;-3.890;2023-06-10T02:35:15;10.27;;;6.57;;
25435;SDS011;13363;52.772;-3.890;2023-06-10T02:37:42;7.20;;;6.37;;
25435;SDS011;13363;52.772;-3.890;2023-06-10T02:40:08;10.33;;;6.37;;
25435;SDS011;13363;52.772;-3.890;2023-06-10T02:42:35;6.30;;;5.77;;
25435;SDS011;13363;52.772;-3.890;2023-06-10T02:45:01;8.87;;;7.00;;
25435;SDS011;13363;52.772;-3.890;2023-06-10T02:47:28;7.37;;;6.53;;
25435;SDS011;13363;52.772;-3.890;2023-06-10T02:49:53;9.57;;;6.47;;
25435;SDS011;13363;52.772;-3.890;2023-06-10T02:52:19;7.90;;;6.67;;
25435;SDS011;13363;52.772;-3.890;2023-06-10T02:54:45;7.70;;;6.70;;
25435;SDS011;13363;52.772;-3.890;2023-06-10T02:57:11;10.70;;;6.87;;
25435;SDS011;13363;52.772;-3.890;2023-06-10T02:59:39;10.43;;;7.43;;
25435;SDS011;13363;52.772;-3.890;2023-06-10T03:02:06;6.87;;;6.27;;
25435;SDS011;13363;52.772;-3.890;2023-06-10T03:04:32;7.20;;;6.43;;
25435;SDS011;13363;52.772;-3.890;2023-06-10T03:06:59;6.77;;;6.13;;
25435;SDS011;13363;52.772;-3.890;2023-06-10T03:09:28;7.47;;;6.33;;
25435;SDS011;13363;52.772;-3.890;2023-06-10T03:11:54;9.17;;;6.90;;
25435;SDS011;13363;52.772;-3.890;2023-06-10T03:14:20;7.13;;;6.10;;
25435;SDS011;13363;52.772;-3.890;2023-06-10T03:16:46;7.00;;;6.30;;
25435;SDS011;13363;52.772;-3.890;2023-06-10T03:19:12;6.60;;;6.03;;
25435;SDS011;13363;52.772;-3.890;2023-06-10T03:21:38;9.37;;;7.13;;
25435;SDS011;13363;52.772;-3.890;2023-06-10T03:24:04;6.80;;;6.17;;
25435;SDS011;13363;52.772;-3.890;2023-06-10T03:26:31;9.20;;;5.97;;
25435;SDS011;13363;52.772;-3.890;2023-06-10T03:28:56;7.90;;;6.13;;
25435;SDS011;13363;52.772;-3.890;2023-06-10T03:31:22;6.90;;;6.37;;
25435;SDS011;13363;52.772;-3.890;2023-06-10T03:33:49;6.70;;;6.10;;
25435;SDS011;13363;52.772;-3.890;2023-06-10T03:36:16;7.07;;;6.53;;
25435;SDS011;13363;52.772;-3.890;2023-06-10T03:38:42;10.03;;;6.77;;
25435;SDS011;13363;52.772;-3.890;2023-06-10T03:41:08;6.53;;;5.97;;
25435;SDS011;13363;52.772;-3.890;2023-06-10T03:43:34;7.37;;;6.53;;
25435;SDS011;13363;52.772;-3.890;2023-06-10T03:46:00;7.43;;;6.67;;
25435;SDS011;13363;52.772;-3.890;2023-06-10T03:48:26;7.13;;;6.43;;
25435;SDS011;13363;52.772;-3.890;2023-06-10T03:50:52;7.97;;;7.27;;
25435;SDS011;13363;52.772;-3.890;2023-06-10T03:53:18;7.40;;;6.70;;
25435;SDS011;13363;52.772;-3.890;2023-06-10T03:55:44;6.70;;;6.10;;
25435;SDS011;13363;52.772;-3.890;2023-06-10T03:58:10;7.83;;;6.73;;
25435;SDS011;13363;52.772;-3.890;2023-06-10T04:00:38;7.33;;;6.60;;
25435;SDS011;13363;52.772;-3.890;2023-06-10T04:03:09;7.40;;;6.53;;
25435;SDS011;13363;52.772;-3.890;2023-06-10T04:05:39;7.23;;;6.53;;
25435;SDS011;13363;52.772;-3.890;2023-06-10T04:08:06;7.70;;;7.00;;
25435;SDS011;13363;52.772;-3.890;2023-06-10T04:10:32;7.67;;;6.87;;
25435;SDS011;13363;52.772;-3.890;2023-06-10T04:12:58;7.17;;;6.67;;
25435;SDS011;13363;52.772;-3.890;2023-06-10T04:15:24;8.37;;;7.13;;
25435;SDS011;13363;52.772;-3.890;2023-06-10T04:17:50;7.60;;;6.80;;
25435;SDS011;13363;52.772;-3.890;2023-06-10T04:20:17;7.43;;;6.70;;
25435;SDS011;13363;52.772;-3.890;2023-06-10T04:22:43;7.50;;;6.90;;
25435;SDS011;13363;52.772;-3.890;2023-06-10T04:25:09;7.30;;;6.77;;
25435;SDS011;13363;52.772;-3.890;2023-06-10T04:27:35;10.60;;;6.80;;
25435;SDS011;13363;52.772;-3.890;2023-06-10T04:30:02;7.57;;;6.87;;
25435;SDS011;13363;52.772;-3.890;2023-06-10T04:32:29;9.03;;;7.30;;
25435;SDS011;13363;52.772;-3.890;2023-06-10T04:34:55;7.30;;;6.40;;
25435;SDS011;13363;52.772;-3.890;2023-06-10T04:37:21;10.90;;;6.90;;
25435;SDS011;13363;52.772;-3.890;2023-06-10T04:39:47;7.47;;;6.73;;
25435;SDS011;13363;52.772;-3.890;2023-06-10T04:42:13;7.80;;;7.13;;
25435;SDS011;13363;52.772;-3.890;2023-06-10T04:44:39;8.37;;;7.03;;
25435;SDS011;13363;52.772;-3.890;2023-06-10T04:47:05;7.67;;;6.77;;
25435;SDS011;13363;52.772;-3.890;2023-06-10T04:49:33;8.10;;;6.40;;
25435;SDS011;13363;52.772;-3.890;2023-06-10T04:51:59;7.50;;;6.80;;
25435;SDS011;13363;52.772;-3.890;2023-06-10T04:54:25;8.00;;;7.30;;
25435;SDS011;13363;52.772;-3.890;2023-06-10T04:56:51;9.17;;;7.10;;
25435;SDS011;13363;52.772;-3.890;2023-06-10T04:59:17;7.67;;;6.97;;
25435;SDS011;13363;52.772;-3.890;2023-06-10T05:01:42;7.13;;;6.53;;
25435;SDS011;13363;52.772;-3.890;2023-06-10T05:04:08;7.07;;;6.63;;
25435;SDS011;13363;52.772;-3.890;2023-06-10T05:06:34;6.70;;;6.13;;
25435;SDS011;13363;52.772;-3.890;2023-06-10T05:09:01;6.27;;;5.77;;
25435;SDS011;13363;52.772;-3.890;2023-06-10T05:11:27;7.73;;;6.77;;
25435;SDS011;13363;52.772;-3.890;2023-06-10T05:13:53;6.60;;;6.00;;
25435;SDS011;13363;52.772;-3.890;2023-06-10T05:16:19;7.37;;;6.70;;
25435;SDS011;13363;52.772;-3.890;2023-06-10T05:18:44;9.70;;;6.27;;
25435;SDS011;13363;52.772;-3.890;2023-06-10T05:21:10;6.20;;;5.70;;
25435;SDS011;13363;52.772;-3.890;2023-06-10T05:23:36;8.93;;;7.50;;
25435;SDS011;13363;52.772;-3.890;2023-06-10T05:26:02;7.53;;;6.83;;
25435;SDS011;13363;52.772;-3.890;2023-06-10T05:28:28;6.40;;;5.90;;
25435;SDS011;13363;52.772;-3.890;2023-06-10T05:30:54;7.10;;;6.60;;
25435;SDS011;13363;52.772;-3.890;2023-06-10T05:33:20;9.77;;;7.20;;
25435;SDS011;13363;52.772;-3.890;2023-06-10T05:35:45;7.27;;;6.57;;
25435;SDS011;13363;52.772;-3.890;2023-06-10T05:38:11;7.37;;;6.57;;
25435;SDS011;13363;52.772;-3.890;2023-06-10T05:40:37;7.30;;;6.60;;
25435;SDS011;13363;52.772;-3.890;2023-06-10T05:43:03;7.37;;;6.03;;
25435;SDS011;13363;52.772;-3.890;2023-06-10T05:45:29;6.60;;;6.00;;
25435;SDS011;13363;52.772;-3.890;2023-06-10T05:47:55;8.27;;;6.87;;
25435;SDS011;13363;52.772;-3.890;2023-06-10T05:50:21;7.23;;;6.13;;
25435;SDS011;13363;52.772;-3.890;2023-06-10T05:52:47;6.27;;;5.67;;
25435;SDS011;13363;52.772;-3.890;2023-06-10T05:55:13;6.20;;;5.77;;
25435;SDS011;13363;52.772;-3.890;2023-06-10T05:57:40;7.80;;;6.50;;
25435;SDS011;13363;52.772;-3.890;2023-06-10T06:00:07;7.33;;;6.67;;
25435;SDS011;13363;52.772;-3.890;2023-06-10T06:02:33;7.33;;;6.43;;
25435;SDS011;13363;52.772;-3.890;2023-06-10T06:04:59;6.13;;;5.57;;
25435;SDS011;13363;52.772;-3.890;2023-06-10T06:07:24;8.63;;;5.87;;
25435;SDS011;13363;52.772;-3.890;2023-06-10T06:09:50;6.28;;;5.78;;
25435;SDS011;13363;52.772;-3.890;2023-06-10T06:12:16;6.38;;;5.88;;
25435;SDS011;13363;52.772;-3.890;2023-06-10T06:14:42;7.50;;;5.78;;
25435;SDS011;13363;52.772;-3.890;2023-06-10T06:17:08;5.97;;;5.40;;
25435;SDS011;13363;52.772;-3.890;2023-06-10T06:19:33;5.82;;;5.32;;
25435;SDS011;13363;52.772;-3.890;2023-06-10T06:21:59;5.70;;;5.05;;
25435;SDS011;13363;52.772;-3.890;2023-06-10T06:24:25;6.10;;;5.60;;
25435;SDS011;13363;52.772;-3.890;2023-06-10T06:26:51;6.18;;;5.57;;
25435;SDS011;13363;52.772;-3.890;2023-06-10T06:29:17;5.90;;;5.35;;
25435;SDS011;13363;52.772;-3.890;2023-06-10T06:31:43;6.80;;;5.63;;
25435;SDS011;13363;52.772;-3.890;2023-06-10T06:34:09;6.25;;;5.70;;
25435;SDS011;13363;52.772;-3.890;2023-06-10T06:36:35;6.07;;;5.45;;
25435;SDS011;13363;52.772;-3.890;2023-06-10T06:39:01;6.72;;;5.55;;
25435;SDS011;13363;52.772;-3.890;2023-06-10T06:41:27;7.70;;;5.60;;
25435;SDS011;13363;52.772;-3.890;2023-06-10T06:43:56;6.95;;;6.25;;
25435;SDS011;13363;52.772;-3.890;2023-06-10T06:46:22;7.35;;;5.68;;
25435;SDS011;13363;52.772;-3.890;2023-06-10T06:48:48;6.32;;;5.78;;
25435;SDS011;13363;52.772;-3.890;2023-06-10T06:51:14;8.68;;;5.97;;
25435;SDS011;13363;52.772;-3.890;2023-06-10T06:53:40;7.30;;;5.75;;
25435;SDS011;13363;52.772;-3.890;2023-06-10T06:56:09;7.18;;;6.35;;
25435;SDS011;13363;52.772;-3.890;2023-06-10T06:58:36;7.18;;;5.85;;
25435;SDS011;13363;52.772;-3.890;2023-06-10T07:01:02;6.18;;;5.57;;
25435;SDS011;13363;52.772;-3.890;2023-06-10T07:03:28;7.68;;;5.22;;
25435;SDS011;13363;52.772;-3.890;2023-06-10T07:05:53;6.68;;;6.07;;
25435;SDS011;13363;52.772;-3.890;2023-06-10T07:08:19;7.00;;;6.40;;
25435;SDS011;13363;52.772;-3.890;2023-06-10T07:10:45;11.32;;;7.45;;
25435;SDS011;13363;52.772;-3.890;2023-06-10T07:13:11;6.05;;;5.55;;
25435;SDS011;13363;52.772;-3.890;2023-06-10T07:15:38;7.65;;;6.63;;
25435;SDS011;13363;52.772;-3.890;2023-06-10T07:18:04;5.60;;;5.10;;
25435;SDS011;13363;52.772;-3.890;2023-06-10T07:20:30;7.65;;;6.63;;
25435;SDS011;13363;52.772;-3.890;2023-06-10T07:22:56;8.90;;;6.47;;
25435;SDS011;13363;52.772;-3.890;2023-06-10T07:25:22;8.95;;;5.70;;
25435;SDS011;13363;52.772;-3.890;2023-06-10T07:27:49;9.13;;;6.85;;
25435;SDS011;13363;52.772;-3.890;2023-06-10T07:30:15;7.68;;;6.88;;
25435;SDS011;13363;52.772;-3.890;2023-06-10T07:32:40;6.45;;;5.95;;
25435;SDS011;13363;52.772;-3.890;2023-06-10T07:35:08;8.43;;;7.25;;
25435;SDS011;13363;52.772;-3.890;2023-06-10T07:37:36;10.55;;;7.60;;
25435;SDS011;13363;52.772;-3.890;2023-06-10T07:40:02;8.27;;;7.28;;
25435;SDS011;13363;52.772;-3.890;2023-06-10T07:42:28;7.10;;;6.50;;
25435;SDS011;13363;52.772;-3.890;2023-06-10T07:44:54;9.10;;;6.78;;
25435;SDS011;13363;52.772;-3.890;2023-06-10T07:47:19;7.95;;;6.88;;
25435;SDS011;13363;52.772;-3.890;2023-06-10T07:49:45;8.10;;;6.47;;
25435;SDS011;13363;52.772;-3.890;2023-06-10T07:52:11;6.63;;;6.13;;
25435;SDS011;13363;52.772;-3.890;2023-06-10T07:54:37;9.00;;;6.07;;
25435;SDS011;13363;52.772;-3.890;2023-06-10T07:57:03;8.18;;;6.30;;
25435;SDS011;13363;52.772;-3.890;2023-06-10T07:59:29;7.53;;;6.82;;
25435;SDS011;13363;52.772;-3.890;2023-06-10T08:01:54;11.25;;;6.70;;
25435;SDS011;13363;52.772;-3.890;2023-06-10T08:04:20;8.15;;;6.78;;
25435;SDS011;13363;52.772;-3.890;2023-06-10T08:06:46;7.55;;;6.85;;
25435;SDS011;13363;52.772;-3.890;2023-06-10T08:09:12;10.35;;;6.45;;
25435;SDS011;13363;52.772;-3.890;2023-06-10T08:11:37;7.00;;;6.18;;
25435;SDS011;13363;52.772;-3.890;2023-06-10T08:14:03;6.70;;;6.00;;
25435;SDS011;13363;52.772;-3.890;2023-06-10T08:16:29;6.63;;;5.75;;
25435;SDS011;13363;52.772;-3.890;2023-06-10T08:18:55;8.82;;;5.82;;
25435;SDS011;13363;52.772;-3.890;2023-06-10T08:21:21;7.97;;;6.85;;
25435;SDS011;13363;52.772;-3.890;2023-06-10T08:23:46;6.82;;;6.38;;
25435;SDS011;13363;52.772;-3.890;2023-06-10T08:26:12;7.35;;;6.15;;
25435;SDS011;13363;52.772;-3.890;2023-06-10T08:28:38;7.40;;;6.47;;
25435;SDS011;13363;52.772;-3.890;2023-06-10T08:31:04;7.68;;;6.40;;
25435;SDS011;13363;52.772;-3.890;2023-06-10T08:33:30;6.80;;;6.30;;
25435;SDS011;13363;52.772;-3.890;2023-06-10T08:35:56;7.15;;;6.45;;
25435;SDS011;13363;52.772;-3.890;2023-06-10T08:38:21;10.00;;;6.80;;
25435;SDS011;13363;52.772;-3.890;2023-06-10T08:40:47;6.82;;;6.22;;
25435;SDS011;13363;52.772;-3.890;2023-06-10T08:43:17;8.07;;;6.68;;
25435;SDS011;13363;52.772;-3.890;2023-06-10T08:45:55;11.45;;;7.03;;
25435;SDS011;13363;52.772;-3.890;2023-06-10T08:48:24;6.65;;;6.13;;
25435;SDS011;13363;52.772;-3.890;2023-06-10T08:50:56;12.93;;;7.30;;
25435;SDS011;13363;52.772;-3.890;2023-06-10T08:53:23;7.47;;;6.78;;
25435;SDS011;13363;52.772;-3.890;2023-06-10T08:55:51;7.72;;;7.05;;
25435;SDS011;13363;52.772;-3.890;2023-06-10T08:58:18;6.70;;;6.25;;
25435;SDS011;13363;52.772;-3.890;2023-06-10T09:00:44;11.50;;;6.78;;
25435;SDS011;13363;52.772;-3.890;2023-06-10T09:03:11;7.45;;;6.65;;
25435;SDS011;13363;52.772;-3.890;2023-06-10T09:05:37;6.65;;;5.82;;
25435;SDS011;13363;52.772;-3.890;2023-06-10T09:08:05;6.68;;;6.13;;
25435;SDS011;13363;52.772;-3.890;2023-06-10T09:10:32;9.90;;;6.28;;
25435;SDS011;13363;52.772;-3.890;2023-06-10T09:12:58;7.60;;;6.10;;
25435;SDS011;13363;52.772;-3.890;2023-06-10T09:15:24;6.95;;;6.30;;
25435;SDS011;13363;52.772;-3.890;2023-06-10T09:17:52;7.20;;;6.50;;
25435;SDS011;13363;52.772;-3.890;2023-06-10T09:20:23;6.75;;;6.18;;
25435;SDS011;13363;52.772;-3.890;2023-06-10T09:22:52;6.43;;;5.82;;
25435;SDS011;13363;52.772;-3.890;2023-06-10T09:25:18;7.93;;;5.47;;
25435;SDS011;13363;52.772;-3.890;2023-06-10T09:30:31;6.97;;;6.18;;
25435;SDS011;13363;52.772;-3.890;2023-06-10T09:32:59;6.63;;;6.03;;
25435;SDS011;13363;52.772;-3.890;2023-06-10T09:35:26;6.55;;;5.85;;
25435;SDS011;13363;52.772;-3.890;2023-06-10T09:37:54;6.50;;;6.00;;
25435;SDS011;13363;52.772;-3.890;2023-06-10T09:40:22;6.10;;;5.60;;
25435;SDS011;13363;52.772;-3.890;2023-06-10T09:42:52;6.75;;;5.65;;
25435;SDS011;13363;52.772;-3.890;2023-06-10T09:45:22;6.15;;;5.57;;
25435;SDS011;13363;52.772;-3.890;2023-06-10T09:47:52;8.10;;;5.45;;
25435;SDS011;13363;52.772;-3.890;2023-06-10T09:50:19;9.55;;;5.97;;
25435;SDS011;13363;52.772;-3.890;2023-06-10T09:52:45;5.50;;;5.20;;
25435;SDS011;13363;52.772;-3.890;2023-06-10T09:55:13;6.50;;;5.90;;
25435;SDS011;13363;52.772;-3.890;2023-06-10T09:57:39;52.22;;;8.48;;
25435;SDS011;13363;52.772;-3.890;2023-06-10T10:00:07;7.68;;;6.72;;
25435;SDS011;13363;52.772;-3.890;2023-06-10T10:02:50;8.02;;;6.28;;
25435;SDS011;13363;52.772;-3.890;2023-06-10T10:05:19;6.72;;;6.13;;
25435;SDS011;13363;52.772;-3.890;2023-06-10T10:07:46;6.70;;;6.22;;
25435;SDS011;13363;52.772;-3.890;2023-06-10T10:10:13;7.25;;;6.55;;
25435;SDS011;13363;52.772;-3.890;2023-06-10T10:12:41;7.00;;;6.40;;
25435;SDS011;13363;52.772;-3.890;2023-06-10T10:15:08;8.82;;;6.60;;
25435;SDS011;13363;52.772;-3.890;2023-06-10T10:17:58;8.57;;;6.63;;
25435;SDS011;13363;52.772;-3.890;2023-06-10T10:20:26;7.05;;;6.35;;
25435;SDS011;13363;52.772;-3.890;2023-06-10T10:22:56;9.35;;;6.55;;
25435;SDS011;13363;52.772;-3.890;2023-06-10T10:25:23;6.63;;;6.13;;
25435;SDS011;13363;52.772;-3.890;2023-06-10T10:27:57;8.10;;;6.28;;
25435;SDS011;13363;52.772;-3.890;2023-06-10T10:30:32;7.75;;;6.97;;
25435;SDS011;13363;52.772;-3.890;2023-06-10T10:36:15;7.28;;;6.50;;
25435;SDS011;13363;52.772;-3.890;2023-06-10T10:38:41;7.70;;;5.72;;
25435;SDS011;13363;52.772;-3.890;2023-06-10T10:41:08;7.22;;;6.50;;
25435;SDS011;13363;52.772;-3.890;2023-06-10T10:43:34;6.82;;;6.22;;
25435;SDS011;13363;52.772;-3.890;2023-06-10T10:46:02;8.13;;;7.35;;
25435;SDS011;13363;52.772;-3.890;2023-06-10T10:48:43;8.15;;;6.13;;
25435;SDS011;13363;52.772;-3.890;2023-06-10T10:51:11;7.82;;;6.97;;
25435;SDS011;13363;52.772;-3.890;2023-06-10T10:53:38;7.13;;;6.43;;
25435;SDS011;13363;52.772;-3.890;2023-06-10T10:56:23;8.45;;;6.80;;
25435;SDS011;13363;52.772;-3.890;2023-06-10T10:59:02;7.05;;;6.45;;
25435;SDS011;13363;52.772;-3.890;2023-06-10T11:01:39;9.93;;;6.75;;
25435;SDS011;13363;52.772;-3.890;2023-06-10T11:04:11;6.63;;;6.15;;
25435;SDS011;13363;52.772;-3.890;2023-06-10T11:06:37;7.03;;;6.30;;
25435;SDS011;13363;52.772;-3.890;2023-06-10T11:11:52;7.45;;;6.75;;
25435;SDS011;13363;52.772;-3.890;2023-06-10T11:14:27;6.80;;;6.07;;
25435;SDS011;13363;52.772;-3.890;2023-06-10T11:16:53;7.25;;;6.65;;
25435;SDS011;13363;52.772;-3.890;2023-06-10T11:19:32;7.20;;;6.57;;
25435;SDS011;13363;52.772;-3.890;2023-06-10T11:22:03;6.65;;;5.82;;
25435;SDS011;13363;52.772;-3.890;2023-06-10T11:24:33;7.18;;;6.65;;
25435;SDS011;13363;52.772;-3.890;2023-06-10T11:32:29;7.57;;;6.80;;
25435;SDS011;13363;52.772;-3.890;2023-06-10T11:34:56;7.63;;;6.93;;
25435;SDS011;13363;52.772;-3.890;2023-06-10T11:37:23;7.03;;;6.47;;
25435;SDS011;13363;52.772;-3.890;2023-06-10T11:39:55;6.95;;;6.32;;
25435;SDS011;13363;52.772;-3.890;2023-06-10T11:42:21;7.60;;;6.82;;
25435;SDS011;13363;52.772;-3.890;2023-06-10T11:44:52;7.57;;;6.88;;
25435;SDS011;13363;52.772;-3.890;2023-06-10T11:47:19;7.85;;;7.00;;
25435;SDS011;13363;52.772;-3.890;2023-06-10T11:49:55;7.90;;;7.20;;
25435;SDS011;13363;52.772;-3.890;2023-06-10T11:52:31;8.15;;;7.35;;
25435;SDS011;13363;52.772;-3.890;2023-06-10T11:54:58;7.20;;;6.50;;
25435;SDS011;13363;52.772;-3.890;2023-06-10T11:57:24;7.78;;;6.68;;
25435;SDS011;13363;52.772;-3.890;2023-06-10T11:59:50;8.07;;;7.45;;
25435;SDS011;13363;52.772;-3.890;2023-06-10T12:02:16;7.50;;;6.93;;
25435;SDS011;13363;52.772;-3.890;2023-06-10T12:04:44;7.55;;;7.05;;
25435;SDS011;13363;52.772;-3.890;2023-06-10T12:07:16;8.10;;;7.40;;
25435;SDS011;13363;52.772;-3.890;2023-06-10T12:09:44;8.65;;;7.32;;
25435;SDS011;13363;52.772;-3.890;2023-06-10T12:12:10;7.95;;;7.20;;
25435;SDS011;13363;52.772;-3.890;2023-06-10T12:14:49;7.82;;;7.10;;
25435;SDS011;13363;52.772;-3.890;2023-06-10T12:19:57;8.82;;;7.45;;
25435;SDS011;13363;52.772;-3.890;2023-06-10T12:22:24;7.60;;;7.00;;
25435;SDS011;13363;52.772;-3.890;2023-06-10T12:25:03;7.43;;;6.85;;
25435;SDS011;13363;52.772;-3.890;2023-06-10T12:27:32;8.48;;;7.68;;
25435;SDS011;13363;52.772;-3.890;2023-06-10T12:29:59;8.00;;;7.40;;
25435;SDS011;13363;52.772;-3.890;2023-06-10T12:32:35;8.43;;;7.72;;
25435;SDS011;13363;52.772;-3.890;2023-06-10T12:35:06;7.93;;;7.20;;
25435;SDS011;13363;52.772;-3.890;2023-06-10T12:37:34;8.18;;;7.45;;
25435;SDS011;13363;52.772;-3.890;2023-06-10T12:40:04;8.77;;;7.47;;
25435;SDS011;13363;52.772;-3.890;2023-06-10T12:42:31;10.82;;;7.68;;
25435;SDS011;13363;52.772;-3.890;2023-06-10T12:45:00;8.23;;;7.57;;
25435;SDS011;13363;52.772;-3.890;2023-06-10T12:47:32;9.45;;;8.20;;
25435;SDS011;13363;52.772;-3.890;2023-06-10T12:50:09;8.52;;;7.82;;
25435;SDS011;13363;52.772;-3.890;2023-06-10T12:52:37;8.68;;;7.65;;
25435;SDS011;13363;52.772;-3.890;2023-06-10T12:55:03;8.48;;;7.78;;
25435;SDS011;13363;52.772;-3.890;2023-06-10T12:57:29;10.23;;;7.93;;
25435;SDS011;13363;52.772;-3.890;2023-06-10T12:59:56;8.38;;;7.53;;
25435;SDS011;13363;52.772;-3.890;2023-06-10T13:02:29;8.35;;;7.28;;
25435;SDS011;13363;52.772;-3.890;2023-06-10T13:04:54;8.73;;;7.82;;
25435;SDS011;13363;52.772;-3.890;2023-06-10T13:07:20;8.32;;;7.53;;
25435;SDS011;13363;52.772;-3.890;2023-06-10T13:09:47;9.52;;;7.90;;
25435;SDS011;13363;52.772;-3.890;2023-06-10T13:12:14;7.88;;;7.22;;
25435;SDS011;13363;52.772;-3.890;2023-06-10T13:14:39;8.23;;;7.57;;
25435;SDS011;13363;52.772;-3.890;2023-06-10T13:17:05;8.27;;;7.65;;
25435;SDS011;13363;52.772;-3.890;2023-06-10T13:19:32;7.90;;;7.20;;
25435;SDS011;13363;52.772;-3.890;2023-06-10T13:21:58;8.27;;;7.47;;
25435;SDS011;13363;52.772;-3.890;2023-06-10T13:24:24;7.95;;;7.15;;
25435;SDS011;13363;52.772;-3.890;2023-06-10T13:26:51;8.73;;;7.97;;
25435;SDS011;13363;52.772;-3.890;2023-06-10T13:29:17;8.88;;;7.88;;
25435;SDS011;13363;52.772;-3.890;2023-06-10T13:31:42;11.23;;;8.00;;
25435;SDS011;13363;52.772;-3.890;2023-06-10T13:34:08;8.55;;;7.40;;
25435;SDS011;13363;52.772;-3.890;2023-06-10T13:36:34;8.00;;;7.00;;
25435;SDS011;13363;52.772;-3.890;2023-06-10T13:39:00;9.52;;;7.78;;
25435;SDS011;13363;52.772;-3.890;2023-06-10T13:41:26;8.07;;;7.32;;
25435;SDS011;13363;52.772;-3.890;2023-06-10T13:43:54;9.50;;;6.97;;
25435;SDS011;13363;52.772;-3.890;2023-06-10T13:46:20;7.85;;;7.10;;
25435;SDS011;13363;52.772;-3.890;2023-06-10T13:48:51;7.03;;;6.47;;
25435;SDS011;13363;52.772;-3.890;2023-06-10T13:51:17;7.45;;;6.70;;
25435;SDS011;13363;52.772;-3.890;2023-06-10T13:53:43;7.75;;;7.00;;
25435;SDS011;13363;52.772;-3.890;2023-06-10T13:56:10;7.35;;;6.75;;
25435;SDS011;13363;52.772;-3.890;2023-06-10T13:58:36;7.05;;;6.55;;
25435;SDS011;13363;52.772;-3.890;2023-06-10T14:01:05;6.90;;;6.25;;
25435;SDS011;13363;52.772;-3.890;2023-06-10T14:03:31;6.72;;;6.18;;
25435;SDS011;13363;52.772;-3.890;2023-06-10T14:05:57;6.90;;;6.20;;
25435;SDS011;13363;52.772;-3.890;2023-06-10T14:08:23;7.13;;;6.55;;
25435;SDS011;13363;52.772;-3.890;2023-06-10T14:10:48;7.65;;;6.82;;
25435;SDS011;13363;52.772;-3.890;2023-06-10T14:13:16;7.00;;;6.38;;
25435;SDS011;13363;52.772;-3.890;2023-06-10T14:15:42;6.72;;;6.13;;
25435;SDS011;13363;52.772;-3.890;2023-06-10T14:18:08;6.72;;;6.20;;
25435;SDS011;13363;52.772;-3.890;2023-06-10T14:20:34;7.18;;;6.43;;
25435;SDS011;13363;52.772;-3.890;2023-06-10T14:23:01;6.82;;;6.38;;
25435;SDS011;13363;52.772;-3.890;2023-06-10T14:25:27;7.70;;;7.10;;
25435;SDS011;13363;52.772;-3.890;2023-06-10T14:27:53;8.70;;;7.22;;
25435;SDS011;13363;52.772;-3.890;2023-06-10T14:30:19;7.85;;;7.30;;
25435;SDS011;13363;52.772;-3.890;2023-06-10T14:32:45;7.82;;;7.07;;
25435;SDS011;13363;52.772;-3.890;2023-06-10T14:35:11;8.25;;;7.50;;
25435;SDS011;13363;52.772;-3.890;2023-06-10T14:37:37;7.32;;;6.82;;
25435;SDS011;13363;52.772;-3.890;2023-06-10T14:40:03;8.00;;;7.25;;
25435;SDS011;13363;52.772;-3.890;2023-06-10T14:42:30;8.93;;;8.23;;
25435;SDS011;13363;52.772;-3.890;2023-06-10T14:44:57;9.00;;;8.20;;
25435;SDS011;13363;52.772;-3.890;2023-06-10T14:47:23;10.27;;;9.02;;
25435;SDS011;13363;52.772;-3.890;2023-06-10T14:49:49;9.10;;;8.32;;
25435;SDS011;13363;52.772;-3.890;2023-06-10T14:52:15;13.15;;;9.95;;